Terminal Aerodrome Forecast
Issued by NWS

Home | Current Version | Previous Version | Text Only | Print | Product List | Glossary On
Versions: 1 2 3 4 5 6 7 8 9 10 11 12 13 14 15 16 17 18 19 20 21
000
FTUS43 KBIS 291743
TAFJMS
TAF
KJMS 291743Z 2918/3018 36020G28KT P6SM BKN035
      TEMPO 2918/2919 BKN025
     FM292200 36017G25KT P6SM SCT045
     FM300100 02007KT P6SM SKC
     FM301500 07008KT P6SM SCT200=

USA.gov is the U.S. government's official web portal to all federal, state and local government web resources and services.